Lake Lillian, Minnesota
Current Conditions -  °F | °C
As of 1:54 PM on Thursday 30 Oct 2014 (Local Time) from KOVL Reporting Station
Scattered Clouds Scattered Clouds  
Wind Chill: 50°   Ceiling: Unl
Heat Index: 50°   Visibility: 10mi
Dew Point: 39°   Wind: 13mph
Humidity: 66%   Direction: 340°NNW
Pressure: 30.13"   Gusts: NA
Location:  44.94°N, 94.88°W
Report Text: KOVL 301854Z AUTO 34011KT 10SM SCT021 SCT035 SCT042 10/04 A3013 RMK AO2
Loading
Personal Weather Stations






























Interactive Weather Map
Tropical Storm Tracking
New forecast layout! Learn more

10-Day Weather Forecast

Advertisements
Track Severe Weather on mobile